Artesia ASC

April 5, 2020, 11:20 a.m.

  • imperial
Air Temperature RH Dewpoint Wind Chill Heat Index Wind Speed Wind Direction Precipitation Solar Radiation Soil Temperature
Date Time Max Mean Mean Total Total
US/Mountain F % F F F MPH MPH MPH deg. deg. in. MJ/m^2 F
2020-04-04 11:20 53.2 52.39 36.22 53.2 53.2 3.13 5.1 2.93 186.5 233.9 0.0 0.237 56.84
2020-04-04 11:25 53.08 51.85 35.84 53.08 53.08 4.38 4.92 3.49 283.1 247.3 0.0 0.24 56.95
2020-04-04 11:30 53.82 50.21 35.71 53.82 53.82 3.31 4.56 2.51 70.1 282.9 0.0 0.242 57.09
2020-04-04 11:35 53.64 53.59 37.19 53.64 53.64 8.3 8.68 5.66 124.3 92.2 0.0 0.244 57.24
2020-04-04 11:40 54.0 51.44 36.49 54.0 54.0 7.96 8.86 4.41 93.1 175.5 0.0 0.246 57.38
2020-04-04 11:45 53.87 49.26 35.28 53.87 53.87 3.67 8.48 6.2 45.6 130.5 0.0 0.248 57.52
2020-04-04 11:50 55.11 49.23 36.41 55.11 55.11 2.24 4.74 2.98 108.8 133.2 0.0 0.25 57.67
2020-04-04 11:55 55.22 49.26 36.52 55.22 55.22 5.64 6.89 4.23 121.7 103.9 0.0 0.252 57.81
2020-04-04 12:00 55.22 51.1 37.45 55.22 55.22 7.78 10.45 7.47 111.7 115.6 0.0 0.253 57.97
2020-04-04 12:05 55.04 50.35 36.91 55.04 55.04 7.07 10.27 7.58 109.2 115.3 0.0 0.255 58.12
2020-04-04 12:10 55.65 48.68 36.62 55.65 55.65 6.35 9.22 5.59 111.0 101.4 0.0 0.256 58.28
2020-04-04 12:15 56.14 53.99 39.71 56.14 56.14 5.82 9.73 6.98 197.0 141.9 0.0 0.257 58.42
2020-04-04 12:20 56.44 52.25 39.15 56.44 56.44 7.07 9.22 6.2 118.2 154.2 0.0 0.259 58.6
2020-04-04 12:25 56.52 48.78 37.46 56.52 56.52 7.07 12.06 8.63 141.2 118.6 0.0 0.259 58.77
2020-04-04 12:30 56.62 49.49 37.93 56.62 56.62 11.16 11.52 7.87 181.7 151.9 0.0 0.26 58.91
2020-04-04 12:35 55.96 49.73 37.44 55.96 55.96 9.04 10.98 8.28 185.8 180.7 0.0 0.261 59.07
2020-04-04 12:40 57.18 49.18 38.29 57.18 57.18 9.57 11.7 7.63 156.9 163.8 0.0 0.262 59.25
2020-04-04 12:45 57.6 54.5 41.31 57.6 57.6 6.71 12.06 7.99 159.8 167.3 0.0 0.263 59.41
2020-04-04 12:50 57.79 44.18 36.12 57.79 57.79 3.85 12.95 8.52 130.4 145.9 0.0 0.263 59.58
2020-04-04 12:55 58.71 44.69 37.25 58.71 58.71 6.53 12.95 9.55 124.8 138.7 0.0 0.263 59.72
2020-04-04 13:00 58.03 47.48 38.16 58.03 58.03 7.07 13.13 7.67 111.3 127.4 0.0 0.264 59.88
2020-04-04 13:05 58.03 48.47 38.69 58.03 58.03 13.13 13.13 8.86 149.1 137.4 0.0 0.264 60.04
2020-04-04 13:10 58.69 45.03 37.42 58.69 58.69 13.31 13.31 9.51 158.2 157.7 0.0 0.264 60.21
2020-04-04 13:15 59.56 49.15 40.45 59.56 59.56 13.13 15.99 10.54 171.7 152.0 0.0 0.264 60.39
2020-04-04 13:20 58.57 42.57 35.88 58.57 58.57 11.52 13.67 9.6 153.2 152.7 0.0 0.263 60.55
2020-04-04 13:25 59.68 41.82 36.44 59.68 59.68 11.7 13.31 9.95 134.9 156.3 0.0 0.263 60.67
2020-04-04 13:30 60.1 44.92 38.64 60.1 60.1 8.48 14.2 8.93 157.1 158.0 0.0 0.263 60.84
2020-04-04 13:35 60.1 41.41 36.57 60.1 60.1 10.27 14.74 10.33 121.5 144.7 0.0 0.262 60.98
2020-04-04 13:40 60.35 41.99 37.15 60.35 60.35 10.63 13.85 10.42 137.6 135.1 0.0 0.262 61.12
2020-04-04 13:45 61.27 44.3 39.34 61.27 61.27 11.52 14.2 10.38 160.7 135.3 0.0 0.26 61.27
2020-04-04 13:50 61.27 43.21 38.71 61.27 61.27 14.2 19.93 10.69 155.9 158.5 0.0 0.251 61.41
2020-04-04 13:55 61.75 46.04 40.78 61.75 61.75 11.88 14.38 11.39 158.1 150.3 0.0 0.26 61.54
2020-04-04 14:00 61.75 40.39 37.42 61.75 61.75 13.13 18.32 12.04 132.4 161.2 0.0 0.258 61.66
2020-04-04 14:05 62.31 38.96 37.01 62.31 62.31 11.7 17.61 11.77 140.2 151.0 0.0 0.225 61.79
2020-04-04 14:10 61.5 40.73 37.41 61.5 61.5 14.56 14.56 11.7 152.1 169.5 0.0 0.255 61.92
2020-04-04 14:15 61.81 46.25 40.95 61.81 61.81 14.38 16.17 12.53 160.8 163.4 0.0 0.207 62.01
2020-04-04 14:20 61.14 40.49 36.94 61.14 61.14 13.49 16.35 13.74 163.7 158.7 0.0 0.198 62.13
2020-04-04 14:25 61.88 38.34 36.21 61.88 61.88 10.8 18.32 12.57 145.7 155.7 0.0 0.249 62.22
2020-04-04 14:30 62.62 41.65 38.99 62.62 62.62 11.16 17.25 12.39 124.6 142.0 0.0 0.241 62.33
2020-04-04 14:35 61.88 47.51 41.71 61.88 61.88 13.67 15.46 11.23 167.6 172.4 0.0 0.246 62.44
2020-04-04 14:40 62.55 41.04 38.54 62.55 62.55 10.98 15.64 11.3 173.1 165.4 0.0 0.239 62.51
2020-04-04 14:45 61.63 41.75 38.15 61.63 61.63 13.31 18.5 13.18 163.0 161.6 0.0 0.239 62.6
2020-04-04 14:50 61.81 44.88 40.17 61.81 61.81 7.25 15.64 11.59 171.0 166.5 0.0 0.237 62.67
2020-04-04 14:55 62.85 43.86 40.53 62.85 62.85 11.88 15.28 12.64 156.4 154.5 0.0 0.234 62.74
2020-04-04 15:00 63.64 39.26 38.39 63.64 63.64 13.85 14.92 11.32 141.5 149.7 0.0 0.231 62.83
2020-04-04 15:05 63.59 41.03 39.48 63.59 63.59 11.34 16.71 13.65 160.4 150.9 0.0 0.228 62.91
2020-04-04 15:10 63.28 39.06 37.94 63.28 63.28 13.13 17.78 13.22 152.3 155.0 0.0 0.225 62.98
2020-04-04 15:15 63.95 45.43 42.43 63.95 63.95 9.91 14.74 12.3 164.7 153.0 0.0 0.221 63.05
2020-04-04 15:20 63.52 38.96 38.09 63.52 63.52 11.52 16.53 12.66 154.7 152.5 0.0 0.217 63.1
2020-04-04 15:25 64.38 36.67 37.31 64.38 64.38 16.53 16.71 12.26 152.7 147.0 0.0 0.214 63.14
2020-04-04 15:30 63.88 37.42 37.38 63.88 63.88 12.42 17.96 14.18 129.9 148.0 0.0 0.21 63.18
2020-04-04 15:35 64.56 37.45 38.01 64.56 64.56 12.06 17.43 12.77 161.3 154.7 0.0 0.206 63.25
2020-04-04 15:40 63.52 36.81 36.64 63.52 63.52 12.95 20.65 14.99 142.8 147.4 0.0 0.202 63.3
2020-04-04 15:45 64.62 38.37 38.68 64.62 64.62 14.92 17.07 13.82 149.4 148.0 0.0 0.199 63.3
2020-04-04 15:50 64.74 37.62 38.29 64.74 64.74 15.82 18.68 15.35 147.2 151.6 0.0 0.195 63.36
2020-04-04 15:55 64.8 36.43 37.51 64.8 64.8 14.2 17.61 13.82 152.7 156.8 0.0 0.192 63.37
2020-04-04 16:00 64.8 36.64 37.66 64.8 64.8 15.64 19.75 14.85 148.9 157.1 0.0 0.188 63.37
2020-04-04 16:05 64.06 39.67 39.03 64.06 64.06 14.92 18.32 15.17 159.2 159.8 0.0 0.184 63.41
2020-04-04 16:10 64.26 38.99 38.77 64.26 64.26 15.46 19.57 16.31 151.5 154.5 0.0 0.179 63.41
2020-04-04 16:15 64.36 38.58 38.59 64.36 64.36 19.93 21.72 16.49 151.9 141.7 0.0 0.175 63.41
2020-04-04 16:20 65.05 39.5 39.81 65.05 65.05 15.46 19.75 16.26 142.9 138.6 0.0 0.17 63.41
2020-04-04 16:25 64.87 39.67 39.76 64.87 64.87 19.39 19.39 15.19 142.4 149.4 0.0 0.165 63.41
2020-04-04 16:30 64.18 41.37 40.22 64.18 64.18 16.89 20.11 16.08 166.7 151.6 0.0 0.16 63.43
2020-04-04 16:35 63.52 42.08 40.06 63.52 63.52 18.14 20.65 17.61 176.5 157.8 0.0 0.156 63.41
2020-04-04 16:40 63.95 43.28 41.18 63.95 63.95 12.95 21.36 16.53 145.3 151.4 0.0 0.15 63.41
2020-04-04 16:45 63.75 40.25 39.13 63.75 63.75 16.71 20.65 16.67 150.5 150.7 0.0 0.147 63.41
2020-04-04 16:50 63.82 39.97 39.01 63.82 63.82 17.96 21.36 17.61 128.7 140.2 0.0 0.142 63.41
2020-04-04 16:55 63.64 39.73 38.7 63.64 63.64 18.14 21.18 17.94 133.4 151.6 0.0 0.136 63.39
2020-04-04 17:00 63.46 40.49 39.02 63.46 63.46 17.61 22.44 18.5 133.9 139.4 0.0 0.132 63.37
2020-04-04 17:05 63.41 42.33 40.12 63.41 63.41 17.96 20.11 17.52 147.4 145.0 0.0 0.127 63.37
2020-04-04 17:10 63.41 41.14 39.38 63.41 63.41 17.07 21.36 18.21 130.8 145.1 0.0 0.121 63.36
2020-04-04 17:15 63.34 40.25 38.76 63.34 63.34 19.93 21.18 17.63 136.9 146.0 0.0 0.117 63.34
2020-04-04 17:20 62.92 41.85 39.38 62.92 62.92 21.01 23.15 18.61 175.7 149.1 0.0 0.112 63.3
2020-04-04 17:25 62.92 41.99 39.47 62.92 62.92 17.43 21.54 17.56 129.9 148.5 0.0 0.107 63.28
2020-04-04 17:30 63.36 41.89 39.8 63.36 63.36 18.68 22.26 18.28 136.7 137.2 0.0 0.1 63.27
2020-04-04 17:35 62.73 43.32 40.09 62.73 62.73 17.96 22.26 18.52 152.5 147.8 0.0 0.095 63.25
2020-04-04 17:40 62.73 42.81 39.79 62.73 62.73 15.28 23.15 17.07 156.9 143.4 0.0 0.086 63.23
2020-04-04 17:45 62.42 43.11 39.69 62.42 62.42 17.96 23.33 18.39 139.8 149.1 0.0 0.088 63.19
2020-04-04 17:50 62.11 42.77 39.21 62.11 62.11 20.29 22.08 18.48 140.6 141.1 0.0 0.08 63.14
2020-04-04 17:55 62.06 44.82 40.36 62.06 62.06 17.96 22.97 19.82 154.1 145.2 0.0 0.072 63.14
2020-04-04 18:00 62.19 44.24 40.14 62.19 62.19 16.53 21.18 17.94 139.1 150.6 0.0 0.072 63.1
2020-04-04 18:05 61.81 43.76 39.52 61.81 61.81 21.36 24.41 19.48 157.7 137.8 0.0 0.065 63.07
2020-04-04 18:10 61.63 44.24 39.64 61.63 61.63 21.01 21.18 18.54 145.8 144.8 0.0 0.06 63.03
2020-04-04 18:15 61.39 45.16 39.95 61.39 61.39 19.93 23.51 19.57 144.5 147.2 0.0 0.053 63.0
2020-04-04 18:20 61.02 46.08 40.13 61.02 61.02 19.22 24.05 19.69 158.5 150.2 0.0 0.049 62.94
2020-04-04 18:25 60.6 46.59 40.03 60.6 60.6 18.5 23.69 20.36 153.4 150.0 0.0 0.047 62.92
2020-04-04 18:30 60.3 47.51 40.26 60.3 60.3 17.25 25.81 19.46 140.7 148.0 0.0 0.041 62.87
2020-04-04 18:35 59.81 47.82 39.98 59.81 59.81 20.83 24.94 21.32 162.2 151.7 0.0 0.036 62.83
2020-04-04 18:40 59.32 48.43 39.86 59.32 59.32 16.71 26.35 20.63 126.0 152.8 0.0 0.031 62.8
2020-04-04 18:45 58.96 49.53 40.11 58.96 58.96 15.64 23.33 19.75 166.3 146.0 0.0 0.026 62.74
2020-04-04 18:50 58.84 49.39 39.92 58.84 58.84 22.08 22.08 18.88 160.6 147.9 0.0 0.02 62.73
2020-04-04 18:55 58.41 49.87 39.77 58.41 58.41 17.96 23.33 19.15 140.8 143.3 0.0 0.015 62.67
2020-04-04 19:00 58.05 51.03 40.03 58.05 58.05 17.78 22.26 17.99 148.8 142.9 0.0 0.011 62.6
2020-04-04 19:05 57.92 51.54 40.17 57.92 57.92 12.77 20.11 16.62 129.3 144.2 0.0 0.008 62.56
2020-04-04 19:10 57.56 51.85 39.99 57.56 57.56 16.89 24.23 18.21 148.5 141.6 0.0 0.006 62.51
2020-04-04 19:15 57.18 52.94 40.17 57.18 57.18 11.88 19.75 15.97 144.5 145.6 0.0 0.004 62.44
2020-04-04 19:20 56.88 53.62 40.22 56.88 56.88 13.67 19.75 15.95 143.2 145.1 0.0 0.003 62.4
2020-04-04 19:25 56.39 54.37 40.13 56.39 56.39 16.71 20.83 17.52 149.1 146.5 0.0 0.002 62.33
2020-04-04 19:30 56.03 55.09 40.13 56.03 56.03 19.75 23.33 18.03 146.3 146.6 0.0 0.001 62.28
2020-04-04 19:35 55.8 55.6 40.15 55.8 55.8 17.78 21.18 16.17 151.0 144.8 0.0 0.0 62.22
2020-04-04 19:40 55.62 56.32 40.31 55.62 55.62 17.07 20.29 16.33 153.6 144.3 0.0 0.0 62.17
2020-04-04 19:45 55.18 57.0 40.22 55.18 55.18 16.53 20.65 16.73 136.8 146.5 0.0 0.0 62.11
2020-04-04 19:50 55.06 57.99 40.54 55.06 55.06 15.64 18.68 15.66 132.6 143.5 0.0 0.0 62.06
2020-04-04 19:55 54.82 58.0 40.33 54.82 54.82 18.86 20.11 16.76 144.2 143.2 0.0 0.0 62.01
2020-04-04 20:00 54.77 58.82 40.64 54.77 54.77 15.82 18.32 15.75 138.4 145.3 0.0 0.0 61.93
2020-04-04 20:05 54.34 59.23 40.41 54.34 54.34 16.89 17.96 15.32 127.3 144.8 0.0 0.0 61.88
2020-04-04 20:10 54.34 59.6 40.57 54.34 54.34 18.68 22.08 18.07 154.5 148.4 0.0 0.0 61.83
2020-04-04 20:15 54.09 59.84 40.44 54.09 54.09 18.32 21.18 16.06 134.2 145.1 0.0 0.0 61.74
2020-04-04 20:20 54.16 60.49 40.79 54.16 54.16 15.46 18.86 16.13 156.3 146.1 0.0 0.0 61.7
2020-04-04 20:25 53.78 60.49 40.43 53.78 53.78 18.5 19.75 16.49 143.2 143.9 0.0 0.0 61.63
2020-04-04 20:30 53.47 61.34 40.5 53.47 53.47 19.22 19.22 15.75 157.2 147.3 0.0 0.0 61.57
2020-04-04 20:35 53.55 61.71 40.72 53.55 53.55 11.34 19.57 16.13 137.4 147.0 0.0 0.0 61.52
2020-04-04 20:40 53.6 61.92 40.86 53.6 53.6 16.35 18.68 15.66 151.6 140.4 0.0 0.0 61.43
2020-04-04 20:45 53.37 62.36 40.82 53.37 53.37 14.56 18.68 16.02 135.7 142.8 0.0 0.0 61.39
2020-04-04 20:50 52.93 63.18 40.75 52.93 52.93 15.64 19.39 15.19 148.9 144.1 0.0 0.0 61.32
2020-04-04 20:55 52.93 63.25 40.78 52.93 52.93 13.49 18.68 15.84 147.6 142.8 0.0 0.0 61.27
2020-04-04 21:00 52.99 63.49 40.93 52.99 52.99 17.43 20.47 15.86 157.1 147.6 0.0 0.0 61.2
2020-04-04 21:05 52.81 63.49 40.76 52.81 52.81 15.1 20.11 16.4 141.1 142.6 0.0 0.0 61.14
2020-04-04 21:10 52.75 64.1 40.96 52.75 52.75 17.25 17.43 14.9 142.4 141.1 0.0 0.0 61.09
2020-04-04 21:15 52.68 63.73 40.74 52.68 52.68 15.82 19.39 15.82 145.4 139.2 0.0 0.0 61.02
2020-04-04 21:20 52.39 64.07 40.6 52.39 52.39 14.2 17.78 14.81 152.4 143.4 0.0 0.0 60.98
2020-04-04 21:25 52.27 64.69 40.73 52.27 52.27 15.28 19.04 15.01 138.6 141.3 0.0 0.0 60.91
2020-04-04 21:30 52.32 64.82 40.83 52.32 52.32 18.5 19.39 15.55 151.9 141.3 0.0 0.0 60.85
2020-04-04 21:35 52.27 65.03 40.87 52.27 52.27 18.68 21.01 15.57 151.8 143.7 0.0 0.0 60.8
2020-04-04 21:40 51.96 65.03 40.57 51.96 51.96 16.71 19.04 15.86 144.4 143.8 0.0 0.0 60.73
2020-04-04 21:45 51.84 65.44 40.62 51.84 51.84 15.1 17.07 14.81 152.6 141.8 0.0 0.0 60.69
2020-04-04 21:50 51.53 65.44 40.33 51.53 51.53 15.64 18.68 15.14 137.7 141.9 0.0 0.0 60.62
2020-04-04 21:55 51.66 65.95 40.65 51.66 51.66 16.35 18.32 14.79 134.1 143.6 0.0 0.0 60.57
2020-04-04 22:00 51.4 65.92 40.39 51.4 51.4 14.56 20.11 16.2 135.8 144.3 0.0 0.0 60.51
2020-04-04 22:05 51.35 66.7 40.65 51.35 51.35 13.31 19.22 16.06 141.5 147.0 0.0 0.0 60.44
2020-04-04 22:10 50.86 66.94 40.28 50.86 50.86 13.31 21.54 15.77 147.3 144.3 0.0 0.0 60.39
2020-04-04 22:15 50.79 67.48 40.41 50.79 50.79 16.89 19.04 15.59 145.2 141.5 0.0 0.0 60.33
2020-04-04 22:20 50.79 67.93 40.59 50.79 50.79 17.96 19.93 15.91 137.4 142.4 0.0 0.0 60.26
2020-04-04 22:25 50.43 68.54 40.47 50.43 50.43 14.38 20.47 16.11 138.5 143.9 0.0 0.0 60.22
2020-04-04 22:30 50.05 69.29 40.39 50.05 50.05 12.42 18.5 15.06 137.0 140.3 0.0 0.0 60.17
2020-04-04 22:35 50.0 70.18 40.67 50.0 50.0 21.01 21.01 15.86 152.6 140.5 0.0 0.0 60.1
2020-04-04 22:40 49.57 70.72 40.45 42.89 49.57 20.65 20.65 15.28 143.4 142.2 0.0 0.0 60.04
2020-04-04 22:45 49.44 71.23 40.52 44.01 49.44 14.56 19.75 16.69 142.1 140.9 0.0 0.0 60.01
2020-04-04 22:50 49.26 71.54 40.45 43.32 49.26 16.53 19.57 17.0 142.0 143.3 0.0 0.0 59.95
2020-04-04 22:55 48.9 72.23 40.36 43.23 48.9 14.92 19.93 15.86 151.2 140.2 0.0 0.0 59.9
2020-04-04 23:00 48.9 72.43 40.43 42.98 48.9 15.99 19.22 16.15 142.4 140.3 0.0 0.0 59.86
2020-04-04 23:05 48.78 72.67 40.39 42.53 48.78 17.25 20.47 16.6 141.2 141.1 0.0 0.0 59.79
2020-04-04 23:10 48.4 73.14 40.19 42.28 48.4 16.17 20.47 16.02 132.6 141.2 0.0 0.0 59.74
2020-04-04 23:15 48.34 73.93 40.42 42.43 48.34 15.28 19.75 16.02 150.2 144.3 0.0 0.0 59.7
2020-04-04 23:20 48.16 74.61 40.48 42.61 48.16 13.67 16.71 14.36 141.7 143.9 0.0 0.0 59.65
2020-04-04 23:25 47.86 74.78 40.24 41.38 47.86 17.07 19.22 15.61 144.4 142.3 0.0 0.0 59.59
2020-04-04 23:30 47.91 75.47 40.53 41.45 47.91 17.07 19.04 15.59 154.8 144.0 0.0 0.0 59.56
2020-04-04 23:35 47.55 75.74 40.27 41.24 47.55 15.99 19.04 15.1 142.4 146.0 0.0 0.0 59.5
2020-04-04 23:40 47.55 76.05 40.38 41.59 47.55 14.56 18.14 14.63 140.8 142.1 0.0 0.0 59.43
2020-04-04 23:45 47.55 76.26 40.45 41.74 47.55 14.03 18.5 15.01 142.3 143.2 0.0 0.0 59.4
2020-04-04 23:50 47.32 76.9 40.44 41.69 47.32 13.13 16.89 13.78 143.6 142.2 0.0 0.0 59.34
2020-04-04 23:55 47.14 77.04 40.31 41.72 47.14 12.24 18.86 15.01 119.2 140.7 0.0 0.0 59.29
2020-04-05 00:00 47.07 77.55 40.41 40.93 47.07 14.74 17.78 14.63 124.4 138.8 0.0 0.0 59.25
2020-04-05 00:05 46.78 78.34 40.39 40.42 46.78 15.28 16.89 13.89 148.7 138.2 0.0 0.0 59.2
2020-04-05 00:10 46.58 78.58 40.28 40.75 46.58 13.13 17.96 14.92 142.7 140.2 0.0 0.0 59.16
2020-04-05 00:15 46.4 79.16 40.29 40.42 46.4 13.49 16.35 13.27 143.9 135.0 0.0 0.0 59.09
2020-04-05 00:20 46.35 79.85 40.47 40.15 46.35 14.2 15.64 11.99 132.4 132.4 0.0 0.0 59.05
2020-04-05 00:25 46.22 79.85 40.34 41.23 46.22 10.27 14.03 10.98 148.3 136.1 0.0 0.0 59.02
2020-04-05 00:30 45.99 80.4 40.29 39.95 45.99 13.31 14.92 11.19 139.7 141.0 0.0 0.0 58.95
2020-04-05 00:35 45.99 80.6 40.36 41.0 45.99 10.09 12.77 10.42 138.0 143.7 0.0 0.0 58.91
2020-04-05 00:40 45.86 80.8 40.3 41.11 45.86 9.4 12.77 9.64 138.2 143.5 0.0 0.0 58.87
2020-04-05 00:45 45.73 81.0 40.24 42.46 45.73 6.17 10.63 7.92 119.1 139.2 0.0 0.0 58.84
2020-04-05 00:50 45.68 81.4 40.31 41.75 45.68 7.43 9.04 7.45 151.6 140.8 0.0 0.0 58.8
2020-04-05 00:55 45.5 81.9 40.29 42.18 45.5 6.17 9.57 7.18 140.9 133.2 0.0 0.0 58.73
2020-04-05 01:00 45.07 83.0 40.22 41.67 45.07 6.17 7.96 6.46 151.2 154.6 0.0 0.0 58.69
2020-04-05 01:05 44.94 83.1 40.12 40.28 44.94 8.68 10.45 7.7 144.0 150.1 0.0 0.0 58.64
2020-04-05 01:10 44.69 83.9 40.12 39.82 44.69 9.04 10.09 8.55 144.2 141.6 0.0 0.0 58.6
2020-04-05 01:15 44.64 84.0 40.1 40.31 44.64 7.78 9.4 7.76 147.0 149.7 0.0 0.0 58.55
2020-04-05 01:20 44.83 84.2 40.36 40.39 44.83 8.12 9.91 7.96 154.5 149.6 0.0 0.0 58.53
2020-04-05 01:25 44.53 84.5 40.15 41.02 44.53 6.17 8.48 6.73 139.4 150.6 0.0 0.0 58.5
2020-04-05 01:30 44.33 85.7 40.32 40.2 44.33 7.25 7.78 6.51 166.6 152.1 0.0 0.0 58.42
2020-04-05 01:35 44.33 85.0 40.11 39.94 44.33 7.78 9.4 8.1 130.8 143.0 0.0 0.0 58.41
2020-04-05 01:40 43.92 86.0 40.0 40.19 43.92 6.35 9.91 8.28 129.3 139.1 0.0 0.0 58.35
2020-04-05 01:45 43.79 86.2 39.94 41.08 43.79 4.74 9.4 7.09 145.5 143.7 0.0 0.0 58.33
2020-04-05 01:50 43.48 87.8 40.11 39.88 43.48 6.0 7.07 5.59 146.4 156.7 0.0 0.0 58.26
2020-04-05 01:55 43.23 88.1 39.95 40.85 43.23 4.21 6.0 4.16 249.9 191.0 0.0 0.0 58.23
2020-04-05 02:00 43.05 89.3 40.12 39.37 43.05 6.0 6.53 4.88 158.4 220.8 0.0 0.0 58.17
2020-04-05 02:05 43.23 88.8 40.15 40.17 43.23 5.1 8.48 6.53 161.9 152.9 0.0 0.0 58.14
2020-04-05 02:10 43.36 88.9 40.3 41.47 43.36 3.67 6.53 5.21 172.4 186.3 0.0 0.0 58.1
2020-04-05 02:15 43.18 88.7 40.07 38.37 43.18 8.12 8.3 6.67 119.2 141.4 0.0 0.0 58.06
2020-04-05 02:20 43.23 88.6 40.09 39.07 43.23 6.89 9.91 7.0 140.7 142.6 0.0 0.0 58.03
2020-04-05 02:25 43.29 88.7 40.18 39.76 43.29 5.82 8.48 6.35 136.6 134.8 0.0 0.0 57.99
2020-04-05 02:30 43.0 89.2 40.04 39.2 43.0 6.17 7.78 6.06 150.2 135.6 0.0 0.0 57.94
2020-04-05 02:35 42.87 89.7 40.06 39.05 42.87 6.17 6.89 5.64 161.4 151.5 0.0 0.0 57.9
2020-04-05 02:40 43.0 89.7 40.18 39.42 43.0 5.82 6.17 5.46 122.5 146.0 0.0 0.0 57.85
2020-04-05 02:45 42.62 89.6 39.78 39.45 42.62 5.1 6.35 5.23 141.8 140.4 0.0 0.0 57.79
2020-04-05 02:50 42.39 90.0 39.66 38.93 42.39 5.46 7.96 5.82 141.6 136.0 0.0 0.0 57.78
2020-04-05 02:55 42.01 90.9 39.54 38.73 42.01 5.1 6.0 5.35 133.2 134.6 0.0 0.0 57.74
2020-04-05 03:00 42.03 91.5 39.73 38.15 42.03 6.0 6.0 4.94 134.5 132.1 0.0 0.0 57.69
2020-04-05 03:05 41.9 91.8 39.69 37.56 41.9 6.71 7.43 6.11 122.4 127.1 0.0 0.0 57.65
2020-04-05 03:10 41.9 92.0 39.75 36.38 41.9 9.04 9.04 7.27 125.4 129.8 0.0 0.0 57.63
2020-04-05 03:15 42.26 91.3 39.91 36.45 42.26 9.91 10.45 9.55 135.7 130.8 0.0 0.0 57.58
2020-04-05 03:20 42.13 91.1 39.72 37.27 42.13 7.78 9.57 8.43 139.3 134.2 0.0 0.0 57.54
2020-04-05 03:25 41.95 91.5 39.66 37.14 41.95 7.61 9.22 7.63 156.2 135.3 0.0 0.0 57.51
2020-04-05 03:30 41.95 92.1 39.83 37.53 41.95 6.89 8.68 7.36 154.6 148.6 0.0 0.0 57.47
2020-04-05 03:35 41.95 92.6 39.97 36.37 41.95 9.22 9.91 8.25 145.3 146.0 0.0 0.0 57.43
2020-04-05 03:40 42.08 92.5 40.06 36.6 42.08 9.04 10.09 8.01 145.0 149.9 0.0 0.0 57.4
2020-04-05 03:45 42.08 92.3 40.01 37.78 42.08 6.71 9.04 6.73 148.6 153.8 0.0 0.0 57.34
2020-04-05 03:50 42.03 92.6 40.04 38.04 42.03 6.17 8.3 6.2 138.9 149.7 0.0 0.0 57.31
2020-04-05 03:55 41.9 93.1 40.05 37.36 41.9 7.07 7.25 5.37 142.1 145.8 0.0 0.0 57.27
2020-04-05 04:00 41.9 93.2 40.08 36.64 41.9 8.48 8.48 6.06 148.2 145.5 0.0 0.0 57.25
2020-04-05 04:05 41.65 93.3 39.86 36.59 41.65 7.96 8.86 7.11 144.9 147.2 0.0 0.0 57.22
2020-04-05 04:10 41.77 93.4 40.01 37.41 41.77 6.71 8.48 6.98 156.4 149.2 0.0 0.0 57.18
2020-04-05 04:15 41.59 93.5 39.86 38.95 41.59 4.21 7.43 5.57 159.0 152.7 0.0 0.0 57.15
2020-04-05 04:20 41.34 94.0 39.75 37.95 41.34 5.1 5.64 4.94 144.9 153.9 0.0 0.0 57.11
2020-04-05 04:25 40.98 94.4 39.5 37.8 40.98 4.74 5.64 4.85 152.2 147.9 0.0 0.0 57.07
2020-04-05 04:30 40.73 94.4 39.25 37.8 40.73 4.38 5.28 4.5 149.5 146.6 0.0 0.0 57.02
2020-04-05 04:35 40.48 94.7 39.08 37.99 40.48 3.85 4.74 3.85 172.8 155.6 0.0 0.0 56.98
2020-04-05 04:40 40.3 95.0 38.98 38.14 40.3 3.49 4.38 3.67 170.9 177.6 0.0 0.0 56.97
2020-04-05 04:45 40.24 95.3 39.01 40.24 40.24 2.77 3.67 3.09 180.3 177.4 0.0 0.0 56.93
2020-04-05 04:50 39.94 95.5 38.76 39.94 39.94 1.16 2.77 1.99 243.1 198.9 0.0 0.0 56.89
2020-04-05 04:55 39.99 95.7 38.86 39.99 39.99 1.34 1.7 1.43 248.0 243.5 0.0 0.0 56.86
2020-04-05 05:00 39.94 95.9 38.86 39.94 39.94 1.52 1.52 1.32 224.7 207.8 0.0 0.0 56.82
2020-04-05 05:05 39.76 95.4 38.55 39.76 39.76 1.16 1.7 1.34 266.5 252.7 0.0 0.0 56.79
2020-04-05 05:10 39.4 96.0 38.35 39.4 39.4 1.34 1.52 1.19 233.8 239.4 0.0 0.0 56.75
2020-04-05 05:15 39.09 96.2 38.1 39.09 39.09 1.7 1.88 1.48 214.9 247.5 0.0 0.0 56.73
2020-04-05 05:20 39.45 96.5 38.54 39.45 39.45 1.88 2.06 1.81 206.1 212.4 0.0 0.0 56.68
2020-04-05 05:25 39.45 96.7 38.59 39.45 39.45 2.42 2.42 2.15 186.8 192.1 0.0 0.0 56.64
2020-04-05 05:30 39.15 96.1 38.13 36.82 39.15 3.49 3.49 3.06 185.8 182.3 0.0 0.0 56.61
2020-04-05 05:35 38.66 96.7 37.8 38.66 38.66 1.88 3.31 2.77 189.9 177.3 0.0 0.0 56.55
2020-04-05 05:40 38.97 97.2 38.24 38.97 38.97 2.95 2.95 2.39 203.5 205.2 0.0 0.0 56.53
2020-04-05 05:45 38.89 97.2 38.17 38.89 38.89 1.7 3.49 2.64 209.4 207.8 0.0 0.0 56.48
2020-04-05 05:50 38.66 96.9 37.86 38.66 38.66 1.7 2.06 1.77 219.4 212.8 0.0 0.0 56.44
2020-04-05 05:55 38.48 97.1 37.73 38.48 38.48 2.24 2.59 2.17 209.0 215.3 0.0 0.0 56.43
2020-04-05 06:00 38.41 97.2 37.68 38.41 38.41 1.34 2.42 1.81 181.5 192.9 0.0 0.0 56.37
2020-04-05 06:05 38.05 97.2 37.32 38.05 38.05 1.34 1.52 1.3 177.7 175.1 0.0 0.0 56.32
2020-04-05 06:10 38.12 97.5 37.47 38.12 38.12 0.0 1.16 0.89 164.6 167.5 0.0 0.0 56.28
2020-04-05 06:15 38.3 98.0 37.78 38.3 38.3 1.34 1.34 0.81 146.7 148.7 0.0 0.0 56.25
2020-04-05 06:20 38.98 97.9 38.44 38.98 38.98 2.06 2.06 1.61 166.5 148.5 0.0 0.0 56.19
2020-04-05 06:25 38.61 97.6 37.99 38.61 38.61 2.95 2.95 2.59 165.9 166.0 0.0 0.0 56.16
2020-04-05 06:30 38.17 97.4 37.5 36.11 38.17 3.13 3.31 3.04 166.2 162.8 0.0 0.0 56.12
2020-04-05 06:35 38.48 98.9 38.2 36.06 38.48 3.49 3.85 3.27 153.3 156.8 0.0 0.0 56.07
2020-04-05 06:40 39.6 99.0 39.34 36.48 39.6 4.38 4.38 3.33 136.5 152.9 0.0 0.0 56.03
2020-04-05 06:45 40.39 98.9 40.1 36.44 40.39 5.64 6.17 4.41 152.4 147.3 0.0 0.001 55.96
2020-04-05 06:50 40.87 98.8 40.56 37.4 40.87 5.1 7.25 5.41 136.1 150.1 0.0 0.001 55.94
2020-04-05 06:55 41.13 98.8 40.81 37.83 41.13 4.92 6.0 4.99 156.3 152.6 0.0 0.002 55.9
2020-04-05 07:00 41.18 98.5 40.79 38.47 41.18 4.21 6.17 4.92 139.8 152.3 0.0 0.002 55.85
2020-04-05 07:05 41.18 98.4 40.76 38.47 41.18 4.21 5.82 4.79 139.6 151.0 0.0 0.002 55.81
2020-04-05 07:10 41.49 98.6 41.12 37.07 41.49 6.71 7.96 6.2 159.0 145.6 0.0 0.002 55.8
2020-04-05 07:15 41.79 98.8 41.48 36.51 41.79 8.48 9.22 7.52 162.8 152.4 0.0 0.003 55.78
2020-04-05 07:20 41.59 99.0 41.33 35.2 41.59 10.98 11.16 9.6 150.2 149.3 0.0 0.005 55.74
2020-04-05 07:25 41.41 99.4 41.26 36.3 41.41 7.96 11.88 9.75 152.2 144.5 0.0 0.01 55.71
2020-04-05 07:30 41.59 99.6 41.49 34.74 41.59 12.24 12.24 8.84 154.1 155.4 0.0 0.01 55.69
2020-04-05 07:35 41.29 99.9 41.26 35.71 41.29 8.86 11.34 9.66 157.9 156.5 0.0 0.011 55.65
2020-04-05 07:40 41.22 99.9 41.19 36.34 41.22 7.43 11.88 9.17 179.5 161.1 0.0 0.013 55.63
2020-04-05 07:45 41.59 100.0 41.59 36.7 41.59 7.61 9.73 8.46 170.3 163.7 0.0 0.013 55.62
2020-04-05 07:50 41.59 99.9 41.57 36.01 41.59 9.04 11.16 8.05 144.1 157.1 0.0 0.018 55.62
2020-04-05 07:55 41.47 99.9 41.44 35.77 41.47 9.22 10.27 8.81 144.4 145.1 0.0 0.022 55.6
2020-04-05 08:00 41.9 99.9 41.87 36.73 41.9 8.3 10.09 7.83 163.6 154.7 0.0 0.022 55.6
2020-04-05 08:05 42.08 99.9 42.05 38.33 42.08 5.82 8.3 6.69 141.1 158.7 0.0 0.023 55.58
2020-04-05 08:10 42.26 100.0 42.26 37.8 42.26 7.07 8.86 7.25 142.9 138.2 0.0 0.025 55.56
2020-04-05 08:15 42.13 99.9 42.11 37.18 42.13 7.96 10.09 8.23 157.9 152.5 0.0 0.03 55.58
2020-04-05 08:20 42.49 100.0 42.49 37.45 42.49 8.3 9.22 7.85 139.1 143.3 0.0 0.027 55.54
2020-04-05 08:25 42.37 99.9 42.34 38.34 42.37 6.35 10.45 7.72 127.1 139.9 0.0 0.031 55.54
2020-04-05 08:30 42.62 99.9 42.59 38.43 42.62 6.71 8.86 7.07 137.1 137.9 0.0 0.035 55.54
2020-04-05 08:35 42.62 99.9 42.59 38.97 42.62 5.82 9.4 6.89 131.2 136.4 0.0 0.038 55.54
2020-04-05 08:40 42.93 99.9 42.9 38.23 42.93 7.78 8.12 6.93 146.8 130.9 0.0 0.038 55.56
2020-04-05 08:45 43.36 99.9 43.33 39.96 43.36 5.64 9.04 7.09 131.1 146.8 0.0 0.048 55.56
2020-04-05 08:50 43.3 100.0 43.3 39.56 43.3 6.17 8.68 7.0 171.4 147.7 0.0 0.054 55.56
2020-04-05 08:55 43.3 99.9 43.28 38.53 43.3 8.12 9.04 7.25 127.6 143.8 0.0 0.038 55.56
2020-04-05 09:00 43.61 100.0 43.61 39.52 43.61 6.89 8.68 7.27 134.4 132.5 0.0 0.039 55.58
2020-04-05 09:05 43.79 99.9 43.76 38.07 43.79 10.63 10.63 8.14 123.3 129.7 0.0 0.046 55.6
2020-04-05 09:10 43.72 99.9 43.69 39.85 43.72 6.53 10.45 7.45 152.4 139.0 0.0 0.048 55.6
2020-04-05 09:15 44.1 99.9 44.07 41.58 44.1 4.56 7.43 5.79 148.9 137.7 0.0 0.044 55.62
2020-04-05 09:20 44.46 99.9 44.43 40.83 44.46 6.35 9.04 7.09 140.6 138.4 0.0 0.044 55.63
2020-04-05 09:25 44.58 99.9 44.56 40.88 44.58 6.53 10.27 7.74 136.6 150.1 0.0 0.049 55.67
2020-04-05 09:30 44.71 99.9 44.68 41.14 44.71 6.35 8.12 6.24 141.8 142.3 0.0 0.035 55.67
2020-04-05 09:35 45.0 99.8 44.94 41.01 45.0 7.25 9.4 7.56 152.9 131.3 0.0 0.047 55.71
2020-04-05 09:40 45.5 99.2 45.29 41.8 45.5 6.89 8.68 6.73 164.5 157.4 0.0 0.053 55.71
2020-04-05 09:45 45.68 98.6 45.31 42.01 45.68 6.89 8.12 6.76 147.4 167.0 0.0 0.055 55.76
2020-04-05 09:50 45.99 97.3 45.26 40.22 45.99 12.42 12.42 6.15 152.2 168.0 0.0 0.059 55.74
2020-04-05 09:55 45.91 96.5 44.97 41.05 45.91 9.73 11.34 7.38 143.3 142.7 0.0 0.06 55.78
2020-04-05 10:00 46.09 94.3 44.55 42.79 46.09 6.35 9.57 7.76 134.4 148.6 0.0 0.065 55.83
2020-04-05 10:05 46.58 94.1 44.97 42.75 46.58 7.61 8.68 6.76 127.0 136.6 0.0 0.071 55.81
2020-04-05 10:10 47.01 92.9 45.06 43.28 47.01 7.61 9.73 7.85 133.4 153.0 0.0 0.086 55.87
2020-04-05 10:15 47.14 90.8 44.59 43.86 47.14 6.71 10.09 7.63 150.0 143.4 0.0 0.079 55.89
2020-04-05 10:20 47.8 91.1 45.33 43.58 47.8 9.22 9.22 7.09 123.0 139.1 0.0 0.082 55.92
2020-04-05 10:25 47.75 90.6 45.14 44.78 47.75 6.35 9.91 6.93 155.6 149.6 0.0 0.082 55.98
2020-04-05 10:30 48.42 89.3 45.41 45.39 48.42 6.71 9.57 6.67 172.6 144.9 0.0 0.107 56.01
2020-04-05 10:35 49.64 86.0 45.62 47.04 49.64 6.35 7.43 5.7 139.5 143.9 0.0 0.105 56.03
2020-04-05 10:40 50.2 86.6 46.36 50.2 50.2 7.61 9.91 6.87 145.9 152.5 0.0 0.135 56.08
2020-04-05 10:45 50.07 84.2 45.49 50.07 50.07 7.07 8.48 6.26 125.5 149.6 0.0 0.114 56.12
2020-04-05 10:50 50.31 82.9 45.31 50.31 50.31 9.4 10.09 6.69 145.0 144.9 0.0 0.139 56.14
2020-04-05 10:55 50.36 81.9 45.04 50.36 50.36 8.12 10.45 8.52 158.1 158.0 0.0 0.177 56.21
2020-04-05 11:00 50.31 82.1 45.05 50.31 50.31 7.25 7.78 5.15 192.3 166.1 0.0 0.14 56.26
2020-04-05 11:05 51.28 81.0 45.65 51.28 51.28 7.78 9.22 6.17 138.3 165.6 0.0 0.197 56.32
2020-04-05 11:10 51.53 79.95 45.55 51.53 51.53 7.25 8.86 6.87 139.5 129.0 0.0 0.203 56.37
2020-04-05 11:15 52.25 82.0 46.92 52.25 52.25 6.17 6.17 4.34 152.3 150.5 0.0 0.192 56.44
2020-04-05 11:20 52.75 77.87 46.04 52.75 52.75 6.71 9.22 6.49 140.7 138.9 0.0 0.205 56.52

Data is courtesy of the NM Climate Center. DO NOT USE IN LEGAL PROCEEDINGS.